createdAt,value
2022-11-02T00:01:21.484Z,9.17
2022-11-02T00:03:48.489Z,9.44
2022-11-02T00:06:15.042Z,9.25
2022-11-02T00:08:41.626Z,9.25
2022-11-02T00:11:08.533Z,9.33
2022-11-02T00:13:35.078Z,9.12
2022-11-02T00:16:08.273Z,9.04
2022-11-02T00:18:35.660Z,9.04
2022-11-02T00:21:02.976Z,8.91
2022-11-02T00:23:30.344Z,9.20
2022-11-02T00:26:00.676Z,8.99
2022-11-02T00:28:28.978Z,9.04
2022-11-02T00:30:55.371Z,8.94
2022-11-02T00:33:21.823Z,8.95
2022-11-02T00:35:48.408Z,9.11
2022-11-02T00:38:14.910Z,8.90
2022-11-02T00:40:41.335Z,8.86
2022-11-02T00:43:07.868Z,8.78
2022-11-02T00:45:34.587Z,8.81
2022-11-02T00:48:01.767Z,8.77
2022-11-02T00:50:28.467Z,8.55
2022-11-02T00:52:54.864Z,8.79
2022-11-02T00:55:21.591Z,8.78
2022-11-02T00:57:48.254Z,8.70
2022-11-02T01:00:15.454Z,8.56
2022-11-02T01:02:42.327Z,8.53
2022-11-02T01:05:10.615Z,8.68
2022-11-02T01:07:37.604Z,8.53
2022-11-02T01:10:06.035Z,8.55
2022-11-02T01:12:32.463Z,8.51
2022-11-02T01:14:59.157Z,8.51
2022-11-02T01:17:25.598Z,8.41
2022-11-02T01:19:51.990Z,8.34
2022-11-02T01:22:18.505Z,8.52
2022-11-02T01:24:44.969Z,8.35
2022-11-02T01:27:11.406Z,8.31
2022-11-02T01:29:37.785Z,8.20
2022-11-02T01:32:04.418Z,8.45
2022-11-02T01:34:30.930Z,8.41
2022-11-02T01:36:57.314Z,8.39
2022-11-02T01:39:23.757Z,8.36
2022-11-02T01:41:53.824Z,8.32
2022-11-02T01:44:32.019Z,8.26
2022-11-02T01:47:12.756Z,8.08
2022-11-02T01:49:43.178Z,8.15
2022-11-02T01:52:20.013Z,8.04
2022-11-02T01:55:03.772Z,8.30
2022-11-02T01:57:33.411Z,8.20
2022-11-02T02:00:03.861Z,8.18
2022-11-02T02:02:30.410Z,7.95
2022-11-02T02:08:50.793Z,7.88
2022-11-02T02:11:33.976Z,7.83
2022-11-02T02:14:14.751Z,8.07
2022-11-02T02:16:59.619Z,7.87
2022-11-02T02:19:33.116Z,7.85
2022-11-02T02:22:05.152Z,7.80
2022-11-02T02:24:37.351Z,7.83
2022-11-02T02:27:09.531Z,7.91
2022-11-02T02:29:47.704Z,7.89
2022-11-02T02:32:36.349Z,7.80
2022-11-02T02:35:13.828Z,7.47
2022-11-02T02:37:49.337Z,7.54
2022-11-02T02:40:23.130Z,7.71
2022-11-02T02:43:08.489Z,7.48
2022-11-02T02:45:38.189Z,7.64
2022-11-02T02:48:20.948Z,7.64
2022-11-02T02:50:53.150Z,7.65
2022-11-02T02:53:23.638Z,7.32
2022-11-02T02:55:51.004Z,7.57
2022-11-02T02:58:22.872Z,7.65
2022-11-02T03:00:49.606Z,7.53
2022-11-02T03:03:19.122Z,7.44
2022-11-02T03:05:56.846Z,7.50
2022-11-02T03:08:24.017Z,7.51
2022-11-02T03:10:58.024Z,7.32
2022-11-02T03:13:33.381Z,7.42
2022-11-02T03:16:23.896Z,7.35
2022-11-02T03:19:19.606Z,7.22
2022-11-02T03:21:53.839Z,7.28
2022-11-02T03:24:30.351Z,7.14
2022-11-02T03:27:37.374Z,7.14
2022-11-02T03:30:12.003Z,7.17
2022-11-02T03:32:45.026Z,7.03
2022-11-02T03:35:28.756Z,7.03
2022-11-02T03:38:32.775Z,6.99
2022-11-02T03:41:01.366Z,7.13
2022-11-02T03:43:28.945Z,7.08
2022-11-02T03:46:00.937Z,7.04
2022-11-02T03:48:32.276Z,7.03
2022-11-02T03:51:03.945Z,6.94
2022-11-02T03:53:46.574Z,6.86
2022-11-02T03:56:21.294Z,7.02
2022-11-02T03:58:47.729Z,6.61
2022-11-02T04:01:16.832Z,6.78
2022-11-02T04:03:46.005Z,6.98
2022-11-02T04:06:12.952Z,7.00
2022-11-02T04:08:42.281Z,7.03
2022-11-02T04:11:27.710Z,7.08
2022-11-02T04:14:12.829Z,7.00
2022-11-02T04:16:39.768Z,7.03
2022-11-02T04:19:24.934Z,6.71
2022-11-02T04:22:10.148Z,6.85
2022-11-02T04:24:54.820Z,6.86
2022-11-02T04:27:21.507Z,6.87
2022-11-02T04:29:48.316Z,6.74
2022-11-02T04:32:14.706Z,6.64
2022-11-02T04:34:41.104Z,6.66
2022-11-02T04:37:27.481Z,6.91
2022-11-02T04:39:53.963Z,6.76
2022-11-02T04:42:20.327Z,6.74
2022-11-02T04:44:46.752Z,6.77
2022-11-02T04:47:13.174Z,6.83
2022-11-02T04:49:39.628Z,6.77
2022-11-02T04:52:06.035Z,6.70
2022-11-02T04:54:32.432Z,6.64
2022-11-02T04:56:58.871Z,6.65
2022-11-02T04:59:25.286Z,6.63
2022-11-02T05:01:51.807Z,6.59
2022-11-02T05:04:18.311Z,6.58
2022-11-02T05:06:44.744Z,6.75
2022-11-02T05:09:11.215Z,6.61
2022-11-02T05:11:37.633Z,6.67
2022-11-02T05:14:04.243Z,6.80
2022-11-02T05:16:30.863Z,6.70
2022-11-02T05:18:57.462Z,6.60
2022-11-02T05:21:24.003Z,6.72
2022-11-02T05:23:50.426Z,6.58
2022-11-02T05:26:16.840Z,6.75
2022-11-02T05:28:43.272Z,6.85
2022-11-02T05:31:09.709Z,6.61
2022-11-02T05:33:36.585Z,6.73
2022-11-02T05:36:03.519Z,6.65
2022-11-02T05:38:30.192Z,6.64
2022-11-02T05:40:58.592Z,6.59
2022-11-02T05:43:25.823Z,6.65
2022-11-02T05:45:57.048Z,6.76
2022-11-02T05:48:24.392Z,6.51
2022-11-02T05:50:55.819Z,6.59
2022-11-02T05:53:22.396Z,6.45
2022-11-02T05:55:48.923Z,6.34
2022-11-02T05:58:15.391Z,6.32
2022-11-02T06:00:41.824Z,6.50
2022-11-02T06:03:08.245Z,6.41
2022-11-02T06:05:35.095Z,6.44
2022-11-02T06:08:02.537Z,6.38
2022-11-02T06:10:30.732Z,6.23
2022-11-02T06:12:59.423Z,6.28
2022-11-02T06:15:26.734Z,6.43
2022-11-02T06:17:53.323Z,6.43
2022-11-02T06:20:20.794Z,6.41
2022-11-02T06:22:47.469Z,6.55
2022-11-02T06:25:14.463Z,6.49
2022-11-02T06:27:45.827Z,6.60
2022-11-02T06:30:12.576Z,6.51
2022-11-02T06:32:39.028Z,6.43
2022-11-02T06:35:06.071Z,6.47
2022-11-02T06:37:34.436Z,6.33
2022-11-02T06:40:00.916Z,6.46
2022-11-02T06:42:27.488Z,6.53
2022-11-02T06:44:53.959Z,6.47
2022-11-02T06:47:20.388Z,6.57
2022-11-02T06:49:46.801Z,6.62
2022-11-02T06:52:13.573Z,6.60
2022-11-02T06:54:40.021Z,6.66
2022-11-02T06:57:06.940Z,6.73
2022-11-02T06:59:33.862Z,6.54
2022-11-02T07:02:00.431Z,6.71
2022-11-02T07:04:27.122Z,6.69
2022-11-02T07:06:53.683Z,6.80
2022-11-02T07:09:20.236Z,6.71
2022-11-02T07:11:46.932Z,6.83
2022-11-02T07:14:13.633Z,6.74
2022-11-02T07:16:40.488Z,6.93
2022-11-02T07:19:07.066Z,6.91
2022-11-02T07:21:33.741Z,6.86
2022-11-02T07:24:00.414Z,6.90
2022-11-02T07:26:27.228Z,7.06
2022-11-02T07:28:58.259Z,7.13
2022-11-02T07:31:24.892Z,7.17
2022-11-02T07:33:51.314Z,7.38
2022-11-02T07:36:17.909Z,7.30
2022-11-02T07:38:44.368Z,7.49
2022-11-02T07:41:10.931Z,7.59
2022-11-02T07:43:41.297Z,7.59
2022-11-02T07:46:11.661Z,7.86
2022-11-02T07:48:38.433Z,7.85
2022-11-02T07:51:07.242Z,8.32
2022-11-02T07:53:34.371Z,8.40
2022-11-02T07:56:01.463Z,8.37
2022-11-02T07:58:27.929Z,8.49
2022-11-02T08:01:01.028Z,8.91
2022-11-02T08:03:28.652Z,8.68
2022-11-02T08:05:55.517Z,8.55
2022-11-02T08:08:24.573Z,8.77
2022-11-02T08:10:52.525Z,8.81
2022-11-02T08:13:22.200Z,8.89
2022-11-02T08:15:50.865Z,8.84
2022-11-02T08:18:20.052Z,9.25
2022-11-02T08:20:47.851Z,9.18
2022-11-02T08:23:19.419Z,9.04
2022-11-02T08:25:47.808Z,9.44
2022-11-02T08:28:23.994Z,9.26
2022-11-02T08:30:50.738Z,9.26
2022-11-02T08:33:19.241Z,9.21
2022-11-02T08:35:46.930Z,9.12
2022-11-02T08:38:13.945Z,9.17
2022-11-02T08:40:41.106Z,9.29
2022-11-02T08:43:10.651Z,9.51
2022-11-02T08:46:12.594Z,9.35
2022-11-02T08:48:25.875Z,9.24
2022-11-02T08:50:52.589Z,9.27
2022-11-02T08:53:19.047Z,9.06
2022-11-02T08:55:45.449Z,9.40
2022-11-02T08:58:11.863Z,9.28
2022-11-02T09:00:38.335Z,9.26
2022-11-02T09:03:08.135Z,9.54
2022-11-02T09:05:37.889Z,10.08
2022-11-02T09:08:06.868Z,10.02
2022-11-02T09:10:35.708Z,10.56
2022-11-02T09:13:04.274Z,10.45
2022-11-02T09:15:33.704Z,11.25
2022-11-02T09:18:00.192Z,11.56
2022-11-02T09:20:26.669Z,12.27
2022-11-02T09:22:53.208Z,12.30
2022-11-02T09:25:19.781Z,12.53
2022-11-02T09:27:47.225Z,12.92
2022-11-02T09:30:15.805Z,13.29
2022-11-02T09:32:42.348Z,14.06
2022-11-02T09:35:11.867Z,14.13
2022-11-02T09:37:38.556Z,14.69
2022-11-02T09:40:06.270Z,14.64
2022-11-02T09:42:43.773Z,15.34
2022-11-02T09:45:16.840Z,15.25
2022-11-02T09:48:26.817Z,14.91
2022-11-02T09:50:59.291Z,14.69
2022-11-02T09:53:40.811Z,14.58
2022-11-02T09:56:08.961Z,14.94
2022-11-02T09:58:39.485Z,14.85
2022-11-02T10:01:28.473Z,15.41
2022-11-02T10:03:54.824Z,15.23
2022-11-02T10:06:25.595Z,14.92
2022-11-02T10:08:57.938Z,14.86
2022-11-02T10:12:03.971Z,15.18
2022-11-02T10:14:35.346Z,15.75
2022-11-02T10:17:13.186Z,15.49
2022-11-02T10:19:41.990Z,16.05
2022-11-02T10:22:13.016Z,16.26
2022-11-02T10:24:43.415Z,16.02
2022-11-02T10:27:29.450Z,15.62
2022-11-02T10:30:03.288Z,15.86
2022-11-02T10:32:32.283Z,15.21
2022-11-02T10:35:17.637Z,15.61
2022-11-02T10:38:03.249Z,15.46
2022-11-02T10:40:54.631Z,15.49
2022-11-02T10:43:58.954Z,15.81
2022-11-02T10:46:42.256Z,16.17
2022-11-02T10:49:48.972Z,16.48
2022-11-02T10:52:17.495Z,16.29
2022-11-02T10:54:44.235Z,16.16
2022-11-02T10:57:12.975Z,16.42
2022-11-02T10:59:39.972Z,15.88
2022-11-02T11:02:14.867Z,16.48
2022-11-02T11:04:42.616Z,15.75
2022-11-02T11:07:26.432Z,16.36
2022-11-02T11:09:57.463Z,16.42
2022-11-02T11:12:31.903Z,16.54
2022-11-02T11:20:39.527Z,14.46
2022-11-02T11:23:15.782Z,14.08
2022-11-02T11:25:42.938Z,14.13
2022-11-02T11:28:53.040Z,13.77
2022-11-02T11:31:19.942Z,14.02
2022-11-02T11:33:52.331Z,13.87
2022-11-02T11:36:45.029Z,13.87
2022-11-02T11:39:28.143Z,13.92
2022-11-02T11:41:55.265Z,13.50
2022-11-02T11:47:11.790Z,13.51
2022-11-02T11:50:09.928Z,13.60
2022-11-02T11:52:34.773Z,13.73
2022-11-02T11:55:18.823Z,14.02
2022-11-02T11:57:45.465Z,13.98
2022-11-02T12:00:27.606Z,14.05
2022-11-02T12:03:13.686Z,13.59
2022-11-02T12:06:07.529Z,13.10
2022-11-02T12:08:42.590Z,13.21
2022-11-02T12:11:55.515Z,14.09
2022-11-02T12:14:40.756Z,14.60
2022-11-02T12:17:19.494Z,14.32
2022-11-02T12:20:17.266Z,14.22
2022-11-02T12:23:05.660Z,13.70
2022-11-02T12:26:05.906Z,14.14
2022-11-02T12:29:04.349Z,14.49
2022-11-02T12:31:38.548Z,14.54
2022-11-02T12:34:21.896Z,14.58
2022-11-02T12:37:37.188Z,14.30
2022-11-02T12:40:33.086Z,14.00
2022-11-02T12:43:08.440Z,15.10
2022-11-02T12:46:00.124Z,16.19
2022-11-02T12:48:42.324Z,15.46
2022-11-02T12:51:18.069Z,14.50
2022-11-02T12:53:54.250Z,14.81
2022-11-02T12:56:25.282Z,15.05
2022-11-02T12:58:52.050Z,14.70
2022-11-02T13:01:35.261Z,14.77
2022-11-02T13:04:14.620Z,13.71
2022-11-02T13:06:50.198Z,13.41
2022-11-02T13:09:24.512Z,13.55
2022-11-02T13:12:02.304Z,13.08
2022-11-02T13:14:40.820Z,13.03
2022-11-02T13:17:25.279Z,13.16
2022-11-02T13:20:12.438Z,13.19
2022-11-02T13:22:41.094Z,13.02
2022-11-02T13:25:16.371Z,13.10
2022-11-02T13:27:50.011Z,13.02
2022-11-02T13:30:18.228Z,12.97
2022-11-02T13:32:50.220Z,13.09
2022-11-02T13:35:23.881Z,13.31
2022-11-02T13:38:02.073Z,13.11
2022-11-02T13:40:36.521Z,12.98
2022-11-02T13:43:27.170Z,12.95
2022-11-02T13:45:59.323Z,13.16
2022-11-02T13:48:39.870Z,13.24
2022-11-02T13:51:13.654Z,13.07
2022-11-02T13:53:49.060Z,12.74
2022-11-02T13:56:24.311Z,13.01
2022-11-02T13:58:57.962Z,12.96
2022-11-02T14:01:25.539Z,12.73
2022-11-02T14:04:04.128Z,12.75
2022-11-02T14:06:34.491Z,12.53
2022-11-02T14:09:18.805Z,12.79
2022-11-02T14:11:48.277Z,12.72
2022-11-02T14:14:23.315Z,12.61
2022-11-02T14:16:49.775Z,12.68
2022-11-02T14:19:19.563Z,12.67
2022-11-02T14:21:49.774Z,12.77
2022-11-02T14:24:36.410Z,12.62
2022-11-02T14:27:11.833Z,12.98
2022-11-02T14:29:47.199Z,12.94
2022-11-02T14:32:23.958Z,13.21
2022-11-02T14:35:12.072Z,13.28
2022-11-02T14:37:49.797Z,13.23
2022-11-02T14:40:51.427Z,13.46
2022-11-02T14:43:36.115Z,13.20
2022-11-02T14:46:10.240Z,13.01
2022-11-02T14:48:54.947Z,12.71
2022-11-02T14:51:27.856Z,12.59
2022-11-02T14:53:58.782Z,12.64
2022-11-02T14:56:45.223Z,12.59
2022-11-02T14:59:22.550Z,12.69
2022-11-02T15:02:04.387Z,12.59
2022-11-02T15:04:32.704Z,12.56
2022-11-02T15:07:02.460Z,12.32
2022-11-02T15:09:50.659Z,12.42
2022-11-02T15:12:31.994Z,12.41
2022-11-02T15:15:02.715Z,12.31
2022-11-02T15:17:29.067Z,12.04
2022-11-02T15:19:58.581Z,12.25
2022-11-02T15:22:47.517Z,12.16
2022-11-02T15:25:20.383Z,12.04
2022-11-02T15:27:51.274Z,12.07
2022-11-02T15:30:25.296Z,11.95
2022-11-02T15:33:01.900Z,11.99
2022-11-02T15:35:37.607Z,11.93
2022-11-02T15:38:30.395Z,12.03
2022-11-02T15:41:06.404Z,11.88
2022-11-02T15:49:13.601Z,11.89
2022-11-02T15:51:43.078Z,11.78
2022-11-02T16:04:54.807Z,11.58
2022-11-02T16:07:29.173Z,11.72
2022-11-02T16:10:24.413Z,11.56
2022-11-02T16:18:22.396Z,11.56
2022-11-02T16:20:48.976Z,11.53
2022-11-02T16:23:24.872Z,11.64
2022-11-02T16:25:54.412Z,11.39
2022-11-02T16:28:28.914Z,11.46
2022-11-02T16:31:19.248Z,11.21
2022-11-02T16:33:53.027Z,11.42
2022-11-02T16:36:31.168Z,11.42
2022-11-02T16:39:14.184Z,11.28
2022-11-02T16:41:41.226Z,11.18
2022-11-02T16:44:10.326Z,11.12
2022-11-02T16:46:49.867Z,10.97
2022-11-02T16:49:18.739Z,11.08
2022-11-02T16:51:57.013Z,11.06
2022-11-02T16:54:42.086Z,11.04
2022-11-02T16:57:28.265Z,11.01
2022-11-02T16:59:57.580Z,11.06
2022-11-02T17:02:32.940Z,10.97
2022-11-02T17:05:04.785Z,10.93
2022-11-02T17:07:37.113Z,10.82
2022-11-02T17:10:05.927Z,10.90
2022-11-02T17:12:43.381Z,10.93
2022-11-02T17:15:18.516Z,10.80
2022-11-02T17:17:44.997Z,10.66
2022-11-02T17:20:11.672Z,10.78
2022-11-02T17:22:48.404Z,10.96
2022-11-02T17:25:27.071Z,10.84
2022-11-02T17:27:55.677Z,10.84
2022-11-02T17:30:34.481Z,10.82
2022-11-02T17:33:08.652Z,10.74
2022-11-02T17:35:35.431Z,10.78
2022-11-02T17:38:02.968Z,10.72
2022-11-02T17:40:29.742Z,10.64
2022-11-02T17:42:59.309Z,10.68
2022-11-02T17:45:28.321Z,10.53
2022-11-02T17:47:59.419Z,10.57
2022-11-02T17:50:27.817Z,10.71
2022-11-02T17:52:54.746Z,10.70
2022-11-02T17:55:23.894Z,10.47
2022-11-02T17:57:50.582Z,10.30
2022-11-02T18:00:18.156Z,10.30
2022-11-02T18:02:47.924Z,10.29
2022-11-02T18:05:28.140Z,10.25
2022-11-02T18:07:56.050Z,10.34
2022-11-02T18:10:25.422Z,10.12
2022-11-02T18:12:52.100Z,10.15
2022-11-02T18:15:30.263Z,10.21
2022-11-02T18:17:56.853Z,10.14
2022-11-02T18:20:24.065Z,9.91
2022-11-02T18:22:50.691Z,9.83
2022-11-02T18:25:18.404Z,9.93
2022-11-02T18:27:45.900Z,9.87
2022-11-02T18:30:15.082Z,9.93
2022-11-02T18:35:16.095Z,9.90
2022-11-02T18:37:42.677Z,10.05
2022-11-02T18:40:11.601Z,10.07
2022-11-02T18:42:39.247Z,9.94
2022-11-02T18:45:06.645Z,9.95
2022-11-02T18:47:33.744Z,9.98
2022-11-02T18:50:00.765Z,9.92
2022-11-02T18:52:32.095Z,9.95
2022-11-02T18:55:03.494Z,9.87
2022-11-02T18:57:30.296Z,9.88
2022-11-02T18:59:56.731Z,9.88
2022-11-02T19:02:23.344Z,9.87
2022-11-02T19:04:49.782Z,9.87
2022-11-02T19:07:34.956Z,9.83
2022-11-02T19:10:03.876Z,9.75
2022-11-02T19:12:31.032Z,9.73
2022-11-02T19:14:57.842Z,9.72
2022-11-02T19:17:25.901Z,9.72
2022-11-02T19:19:52.703Z,9.62
2022-11-02T19:22:21.509Z,9.64
2022-11-02T19:24:47.981Z,9.62
2022-11-02T19:27:17.520Z,9.54
2022-11-02T19:29:44.239Z,9.54
2022-11-02T19:32:10.785Z,9.55
2022-11-02T19:34:38.163Z,9.48
2022-11-02T19:37:06.372Z,9.48
2022-11-02T19:39:33.257Z,9.52
2022-11-02T19:41:59.792Z,9.24
2022-11-02T19:44:26.509Z,9.44
2022-11-02T19:46:53.001Z,9.37
2022-11-02T19:49:19.420Z,9.31
2022-11-02T19:51:45.860Z,9.05
2022-11-02T19:54:12.474Z,9.11
2022-11-02T19:56:38.852Z,9.17
2022-11-02T19:59:06.420Z,8.89
2022-11-02T20:01:35.747Z,8.91
2022-11-02T20:04:02.968Z,8.95
2022-11-02T20:06:33.754Z,8.83
2022-11-02T20:09:07.099Z,8.84
2022-11-02T20:11:33.914Z,8.81
2022-11-02T20:14:02.275Z,8.71
2022-11-02T20:16:28.822Z,8.51
2022-11-02T20:18:56.021Z,8.57
2022-11-02T20:21:30.209Z,8.66
2022-11-02T20:24:00.873Z,8.69
2022-11-02T20:26:33.484Z,8.44
2022-11-02T20:29:01.610Z,8.53
2022-11-02T20:31:34.058Z,8.47
2022-11-02T20:34:00.957Z,8.36
2022-11-02T20:36:28.398Z,8.35
2022-11-02T20:38:56.109Z,8.38
2022-11-02T20:41:24.183Z,8.40
2022-11-02T20:43:52.275Z,8.25
2022-11-02T20:46:42.907Z,8.17
2022-11-02T20:49:22.076Z,8.20
2022-11-02T20:51:56.134Z,8.17
2022-11-02T20:54:22.577Z,8.05
2022-11-02T20:56:49.887Z,8.01
2022-11-02T20:59:16.409Z,7.96
2022-11-02T21:01:42.954Z,7.98
2022-11-02T21:04:09.930Z,7.90
2022-11-02T21:06:38.260Z,7.97
2022-11-02T21:09:09.085Z,7.83
2022-11-02T21:11:56.947Z,7.87
2022-11-02T21:14:23.491Z,7.66
2022-11-02T21:16:49.995Z,7.77
2022-11-02T21:19:16.465Z,7.65
2022-11-02T21:21:43.026Z,7.53
2022-11-02T21:24:09.808Z,7.67
2022-11-02T21:26:36.566Z,7.66
2022-11-02T21:29:03.291Z,7.61
2022-11-02T21:31:29.671Z,7.77
2022-11-02T21:33:56.067Z,7.81
2022-11-02T21:36:22.447Z,7.60
2022-11-02T21:38:48.979Z,7.34
2022-11-02T21:41:19.481Z,7.34
2022-11-02T21:43:45.961Z,7.51
2022-11-02T21:46:12.480Z,7.56
2022-11-02T21:48:39.212Z,7.62
2022-11-02T21:51:24.755Z,7.36
2022-11-02T21:53:51.835Z,7.15
2022-11-02T21:56:21.424Z,7.11
2022-11-02T21:58:48.255Z,7.30
2022-11-02T22:01:44.720Z,7.34
2022-11-02T22:04:24.934Z,7.11
2022-11-02T22:06:52.180Z,7.14
2022-11-02T22:09:18.900Z,7.12
2022-11-02T22:11:45.445Z,7.06
2022-11-02T22:14:12.822Z,7.27
2022-11-02T22:16:42.229Z,7.05
2022-11-02T22:19:11.449Z,7.04
2022-11-02T22:21:43.471Z,7.11
2022-11-02T22:24:10.828Z,7.07
2022-11-02T22:26:39.061Z,7.17
2022-11-02T22:29:06.369Z,6.96
2022-11-02T22:31:35.851Z,7.05
2022-11-02T22:34:04.427Z,7.14
2022-11-02T22:36:33.085Z,7.13
2022-11-02T22:39:01.285Z,7.17
2022-11-02T22:41:38.108Z,6.74
2022-11-02T22:44:15.512Z,7.02
2022-11-02T22:46:44.297Z,6.71
2022-11-02T22:49:12.719Z,6.93
2022-11-02T22:51:41.648Z,6.95
2022-11-02T22:54:11.695Z,6.78
2022-11-02T22:56:38.406Z,6.65
2022-11-02T22:59:05.928Z,6.41
2022-11-02T23:01:33.457Z,6.38
2022-11-02T23:04:01.117Z,6.32
2022-11-02T23:06:28.157Z,6.29
2022-11-02T23:08:57.455Z,6.22
2022-11-02T23:11:29.845Z,6.51
2022-11-02T23:14:22.654Z,6.46
2022-11-02T23:16:49.047Z,6.43
2022-11-02T23:19:30.521Z,6.31
2022-11-02T23:22:23.678Z,6.01
2022-11-02T23:25:17.189Z,5.88
2022-11-02T23:28:12.626Z,6.13
2022-11-02T23:30:58.209Z,6.17
2022-11-02T23:33:29.462Z,6.16
2022-11-02T23:36:11.171Z,6.14
2022-11-02T23:39:14.648Z,6.19
2022-11-02T23:41:41.550Z,6.02
2022-11-02T23:44:14.494Z,5.84
2022-11-02T23:46:42.551Z,6.06
2022-11-02T23:49:09.722Z,6.21
2022-11-02T23:51:54.848Z,6.20
2022-11-02T23:54:39.848Z,6.14
2022-11-02T23:57:06.518Z,6.33
2022-11-02T23:59:33.160Z,6.32
